Observations for LIVERPOOL AIRPORT, United Kingdom (EGGP)

EGGP 191250Z 20004KT 140V310 9999 FEW025 19/11 Q1031
EGGP 191220Z 25004KT 170V300 9999 FEW030 19/11 Q1031
EGGP 191150Z 14004KT 060V210 9999 FEW030 18/12 Q1032
EGGP 191120Z VRB03KT 9999 FEW030 18/14 Q1032
EGGP 191050Z VRB03KT 9999 FEW020 17/13 Q1032
EGGP 191020Z VRB03KT 9999 FEW020 16/14 Q1032
EGGP 190950Z VRB03KT 9999 FEW020 15/13 Q1032
EGGP 190920Z VRB03KT 9999 FEW012 15/13 Q1032
EGGP 190850Z VRB02KT 9999 FEW014 14/13 Q1032
EGGP 190820Z VRB03KT 9999 FEW012 12/12 Q1032
EGGP 190750Z VRB03KT CAVOK 12/11 Q1032  
EGGP 190720Z 15004KT CAVOK 11/11 Q1032  
EGGP 190650Z 15003KT CAVOK 10/10 Q1031  
EGGP 190620Z 15003KT 9999 BCFG NSC 09/09 Q1031  
EGGP 190550Z VRB03KT 9999 BCFG NSC 10/10 Q1031  
EGGP 190520Z 14003KT 9999 BCFG NSC 10/10 Q1031  
EGGP 190450Z 14002KT CAVOK 10/10 Q1031  
EGGP 190420Z 15002KT CAVOK 10/10 Q1031  
EGGP 190350Z 19003KT CAVOK 11/11 Q1031  
EGGP 190320Z 18003KT CAVOK 11/10 Q1031  
EGGP 190250Z 19002KT CAVOK 11/11 Q1031  
EGGP 190220Z 20002KT CAVOK 11/11 Q1031  
EGGP 190150Z 19002KT CAVOK 11/10 Q1031  
EGGP 190120Z VRB02KT CAVOK 11/10 Q1031  
EGGP 190050Z 30003KT CAVOK 12/11 Q1031  
EGGP 190020Z 31004KT 290V350 CAVOK 12/11 Q1031  
EGGP 182350Z 29004KT CAVOK 12/11 Q1031  
EGGP 182320Z 29004KT CAVOK 12/11 Q1031  
EGGP 182250Z 28003KT CAVOK 13/12 Q1031  
EGGP 182220Z 28003KT CAVOK 12/11 Q1031  
EGGP 182150Z 26003KT CAVOK 13/11 Q1031  
EGGP 182120Z 27002KT CAVOK 12/10 Q1031  
EGGP 182050Z 33002KT CAVOK 14/11 Q1031  
EGGP 182020Z 32003KT CAVOK 14/11 Q1031  
EGGP 181950Z 33004KT CAVOK 14/11 Q1031  
EGGP 181920Z 33004KT CAVOK 15/11 Q1030  
EGGP 181850Z 33005KT CAVOK 15/11 Q1030  
EGGP 181820Z 32006KT CAVOK 16/11 Q1030  
EGGP 181750Z 31005KT CAVOK 15/11 Q1030  
EGGP 181720Z 32005KT 280V340 CAVOK 16/10 Q1030  
EGGP 181650Z 33005KT 9999 FEW047 16/11 Q1030
EGGP 181620Z 32005KT 280V350 9999 FEW047 16/11 Q1030
EGGP 181550Z 34006KT 300V020 CAVOK 16/11 Q1030  
EGGP 181520Z 32006KT 290V350 CAVOK 16/10 Q1030  
EGGP 181450Z 32007KT 290V350 CAVOK 16/10 Q1030  
EGGP 181420Z 31008KT 280V340 CAVOK 16/10 Q1030  
EGGP 181350Z 30009KT 9999 FEW040 17/10 Q1030
EGGP 181320Z 29008KT 9999 FEW038 16/11 Q1030
EGGP 181250Z 28009KT 250V310 9999 FEW026 17/12 Q1030
EGGP 181220Z 28006KT 9999 FEW035 17/13 Q1031